Time;durP1;ratioP1;P1;durP2;ratioP2;P2;SDS_P1;SDS_P2;PMS_P1;PMS_P2;Temp;Humidity;BMP_temperature;BMP_pressure;BME280_temperature;BME280_humidity;BME280_pressure;Samples;Min_cycle;Max_cycle;Signal;HPM_P1;HPM_P2
2021/10/14 00:01:25;;;;;;;1.63;1.60;;;8.50;99.90;;;;;;5041913;28;20226;-78
2021/10/14 00:03:52;;;;;;;1.65;1.60;;;8.50;99.90;;;;;;5043357;28;20288;-78
2021/10/14 00:06:20;;;;;;;1.88;1.77;;;8.40;99.90;;;;;;5044379;28;20223;-75
2021/10/14 00:08:47;;;;;;;1.95;1.63;;;8.40;99.90;;;;;;5044831;28;20620;-78
2021/10/14 00:11:14;;;;;;;1.65;1.65;;;8.40;99.90;;;;;;5044245;28;20227;-78
2021/10/14 00:13:41;;;;;;;1.73;1.63;;;8.40;99.90;;;;;;5041106;28;20280;-80
2021/10/14 00:16:09;;;;;;;1.45;1.45;;;8.40;99.90;;;;;;5043915;28;20326;-82
2021/10/14 00:18:36;;;;;;;1.70;1.70;;;8.40;99.90;;;;;;5039803;28;20686;-78
2021/10/14 00:21:03;;;;;;;1.50;1.50;;;8.40;99.90;;;;;;5043911;28;20234;-77
2021/10/14 00:23:31;;;;;;;1.80;1.70;;;8.40;99.90;;;;;;5041165;28;20230;-79
2021/10/14 00:25:58;;;;;;;1.60;1.50;;;8.30;99.90;;;;;;5044189;28;20223;-78
2021/10/14 00:28:25;;;;;;;1.60;1.48;;;8.30;99.90;;;;;;5043192;28;20222;-77
2021/10/14 00:30:52;;;;;;;1.45;1.45;;;8.30;99.90;;;;;;5015117;28;20226;-78
2021/10/14 00:33:19;;;;;;;1.70;1.60;;;8.30;99.90;;;;;;5041015;28;20779;-76
2021/10/14 00:35:46;;;;;;;1.90;1.80;;;8.20;99.90;;;;;;5039191;28;20214;-79
2021/10/14 00:38:13;;;;;;;1.88;1.77;;;8.20;99.90;;;;;;5042064;28;20711;-77
2021/10/14 00:40:43;;;;;;;1.40;1.40;;;8.10;99.90;;;;;;5042616;28;20269;-77
2021/10/14 00:43:10;;;;;;;1.88;1.77;;;8.10;99.90;;;;;;5043661;28;20234;-79
2021/10/14 00:45:37;;;;;;;1.50;1.50;;;8.00;99.90;;;;;;5041997;28;21010;-77
2021/10/14 00:48:05;;;;;;;1.48;1.48;;;8.00;99.90;;;;;;5038859;28;20215;-79
2021/10/14 00:50:32;;;;;;;1.90;1.80;;;7.90;99.90;;;;;;5043255;28;20222;-79
2021/10/14 00:52:59;;;;;;;1.58;1.52;;;7.90;99.90;;;;;;5039752;28;20223;-77
2021/10/14 00:55:27;;;;;;;1.67;1.63;;;7.80;99.90;;;;;;5042074;28;20708;-77
2021/10/14 00:57:55;;;;;;;1.70;1.60;;;7.80;99.90;;;;;;5039989;28;20219;-76
2021/10/14 01:00:23;;;;;;;1.40;1.40;;;7.70;99.90;;;;;;5040915;28;20226;-79
2021/10/14 01:02:50;;;;;;;1.80;1.80;;;7.70;99.90;;;;;;5039666;28;20701;-78
2021/10/14 01:05:17;;;;;;;2.65;1.88;;;7.70;99.90;;;;;;5042194;28;20277;-79
2021/10/14 01:07:44;;;;;;;1.83;1.73;;;7.60;99.90;;;;;;5038751;28;20273;-76
2021/10/14 01:10:12;;;;;;;1.42;1.42;;;7.60;99.90;;;;;;5038752;28;20219;-78
2021/10/14 01:12:39;;;;;;;1.70;1.60;;;7.60;99.90;;;;;;5043298;28;20269;-82
2021/10/14 01:15:24;;;;;;;1.90;1.80;;;7.60;99.90;;;;;;5041345;28;20218;-83
2021/10/14 01:17:51;;;;;;;1.80;1.70;;;7.60;99.90;;;;;;5040314;28;20300;-79
2021/10/14 01:20:19;;;;;;;1.95;1.85;;;7.50;99.90;;;;;;5039044;28;20230;-79
2021/10/14 01:22:47;;;;;;;1.83;1.73;;;7.50;99.90;;;;;;5041745;28;20218;-79
2021/10/14 01:25:14;;;;;;;1.90;1.80;;;7.50;99.90;;;;;;5039316;28;20288;-81
2021/10/14 01:27:41;;;;;;;1.63;1.52;;;7.50;99.90;;;;;;5039861;28;20259;-80
2021/10/14 01:30:10;;;;;;;1.90;1.80;;;7.40;99.90;;;;;;5038441;28;20700;-77
2021/10/14 01:32:37;;;;;;;1.50;1.50;;;7.40;99.90;;;;;;5046282;28;20226;-77
2021/10/14 01:35:05;;;;;;;1.45;1.38;;;7.30;99.90;;;;;;5040481;28;21046;-77
2021/10/14 01:37:34;;;;;;;1.40;1.30;;;7.30;99.90;;;;;;5040119;28;20490;-80
2021/10/14 01:40:02;;;;;;;1.77;1.67;;;7.30;99.90;;;;;;5042199;28;20771;-80
2021/10/14 01:42:29;;;;;;;2.10;2.00;;;7.30;99.90;;;;;;5043774;28;20658;-81
2021/10/14 01:44:58;;;;;;;1.73;1.73;;;7.40;99.90;;;;;;5041375;28;20230;-79
2021/10/14 01:47:25;;;;;;;2.10;2.00;;;7.40;99.90;;;;;;5043689;28;20577;-79
2021/10/14 01:49:52;;;;;;;1.90;1.80;;;7.40;99.90;;;;;;5042510;28;20219;-80
2021/10/14 01:52:19;;;;;;;1.70;1.63;;;7.30;99.90;;;;;;5049551;28;20660;-76
2021/10/14 01:54:47;;;;;;;1.52;1.52;;;7.30;99.90;;;;;;5044264;28;20226;-80
2021/10/14 01:57:14;;;;;;;1.77;1.67;;;7.20;99.90;;;;;;5043632;28;20226;-78
2021/10/14 01:59:41;;;;;;;1.83;1.73;;;7.20;99.90;;;;;;5043363;28;20760;-80
2021/10/14 02:02:09;;;;;;;1.80;1.70;;;7.10;99.90;;;;;;5044090;28;20218;-79
2021/10/14 02:04:36;;;;;;;1.85;1.75;;;7.10;99.90;;;;;;5046091;28;20272;-81
2021/10/14 02:07:03;;;;;;;1.63;1.63;;;7.00;99.90;;;;;;5041760;28;20281;-79
2021/10/14 02:09:30;;;;;;;1.73;1.67;;;7.00;99.90;;;;;;5045209;28;20222;-79
2021/10/14 02:11:58;;;;;;;1.55;1.55;;;6.90;99.90;;;;;;5043810;28;20234;-78
2021/10/14 02:14:25;;;;;;;1.77;1.70;;;6.90;99.90;;;;;;5043617;28;20222;-78
2021/10/14 02:16:53;;;;;;;1.95;1.85;;;6.90;99.90;;;;;;5042152;28;20225;-77
2021/10/14 02:19:20;;;;;;;1.70;1.70;;;6.90;99.90;;;;;;5042590;28;20222;-76
2021/10/14 02:21:47;;;;;;;2.00;1.90;;;6.80;99.90;;;;;;5043986;28;20231;-77
2021/10/14 02:24:14;;;;;;;2.00;1.90;;;6.70;99.90;;;;;;5045159;28;20276;-77
2021/10/14 02:26:41;;;;;;;1.88;1.80;;;6.60;99.90;;;;;;5058671;28;20218;-77
2021/10/14 02:29:12;;;;;;;1.88;1.77;;;6.60;99.90;;;;;;5057326;28;20233;-86
2021/10/14 02:31:40;;;;;;;2.10;2.00;;;6.50;99.90;;;;;;5066463;28;20254;-80
2021/10/14 02:34:07;;;;;;;1.90;1.80;;;6.50;99.90;;;;;;5047037;28;21315;-78
2021/10/14 02:36:35;;;;;;;2.05;1.95;;;6.40;99.90;;;;;;5044067;28;20230;-76
2021/10/14 02:39:02;;;;;;;1.95;1.85;;;6.50;99.90;;;;;;5043310;28;20313;-82
2021/10/14 02:41:29;;;;;;;2.10;2.00;;;6.50;99.90;;;;;;5042773;28;20654;-80
2021/10/14 02:43:56;;;;;;;3.65;1.88;;;6.50;99.90;;;;;;5042900;28;20227;-76
2021/10/14 02:46:25;;;;;;;1.80;1.65;;;6.50;99.90;;;;;;5042591;28;20226;-77
2021/10/14 02:48:52;;;;;;;1.90;1.80;;;6.50;99.90;;;;;;5045408;28;20218;-79
2021/10/14 02:51:19;;;;;;;1.98;1.88;;;6.50;99.90;;;;;;5046423;28;20234;-77
2021/10/14 02:53:46;;;;;;;2.13;2.03;;;6.50;99.90;;;;;;5043035;28;20222;-77
2021/10/14 02:56:13;;;;;;;1.70;1.60;;;6.50;99.90;;;;;;5043081;28;20219;-78
2021/10/14 02:58:40;;;;;;;2.00;1.90;;;6.40;99.90;;;;;;5043317;28;20233;-79
2021/10/14 03:01:07;;;;;;;2.00;1.90;;;6.50;99.90;;;;;;5043392;28;21256;-80
2021/10/14 03:03:36;;;;;;;1.75;1.65;;;6.50;99.90;;;;;;5045212;28;20708;-77
2021/10/14 03:06:03;;;;;;;2.22;2.13;;;6.50;99.90;;;;;;5043726;28;20227;-78
2021/10/14 03:08:30;;;;;;;1.67;1.58;;;6.50;99.90;;;;;;5046000;28;20214;-77
2021/10/14 03:10:57;;;;;;;2.00;1.90;;;6.50;99.90;;;;;;5042701;28;20559;-77
2021/10/14 03:13:24;;;;;;;2.10;1.98;;;6.50;99.90;;;;;;5043697;28;20225;-77
2021/10/14 03:15:51;;;;;;;1.48;1.48;;;6.50;99.90;;;;;;5044204;28;20583;-76
2021/10/14 03:18:18;;;;;;;1.73;1.63;;;6.50;99.90;;;;;;5041145;28;20640;-77
2021/10/14 03:20:46;;;;;;;1.65;1.65;;;6.50;99.90;;;;;;5059921;28;20494;-77
2021/10/14 03:23:13;;;;;;;2.00;1.90;;;6.50;99.90;;;;;;5044146;28;20296;-77
2021/10/14 03:25:40;;;;;;;2.20;2.10;;;6.40;99.90;;;;;;5042789;28;20367;-79
2021/10/14 03:28:07;;;;;;;1.65;1.63;;;6.50;99.90;;;;;;5041687;28;20265;-76
2021/10/14 03:30:34;;;;;;;1.88;1.88;;;6.50;99.90;;;;;;5044920;28;20291;-79
2021/10/14 03:33:01;;;;;;;2.13;2.03;;;6.50;99.90;;;;;;5039986;28;20237;-80
2021/10/14 03:35:28;;;;;;;2.00;1.90;;;6.40;99.90;;;;;;5042922;28;20285;-78
2021/10/14 03:37:57;;;;;;;1.88;1.77;;;6.40;99.90;;;;;;5043997;28;20222;-77
2021/10/14 03:40:24;;;;;;;2.10;2.00;;;6.40;99.90;;;;;;4997479;28;20420;-77
2021/10/14 03:42:51;;;;;;;1.75;1.65;;;6.40;99.90;;;;;;5042043;28;20235;-79
2021/10/14 03:45:18;;;;;;;1.35;1.35;;;6.30;99.90;;;;;;5042654;28;20226;-80
2021/10/14 03:47:45;;;;;;;1.45;1.45;;;6.30;99.90;;;;;;5041542;28;20219;-77
2021/10/14 03:50:12;;;;;;;2.42;2.33;;;6.30;99.90;;;;;;5044175;28;20271;-78
2021/10/14 03:52:40;;;;;;;2.60;2.50;;;6.30;99.90;;;;;;5043689;28;20542;-77
2021/10/14 03:55:09;;;;;;;2.00;1.90;;;6.20;99.90;;;;;;5041373;28;20222;-79
2021/10/14 03:57:36;;;;;;;2.10;2.00;;;6.20;99.90;;;;;;5041140;28;20222;-79
2021/10/14 04:00:04;;;;;;;2.05;1.95;;;6.10;99.90;;;;;;5038757;28;20930;-77
2021/10/14 04:02:31;;;;;;;2.00;1.90;;;6.10;99.90;;;;;;5038277;28;20246;-76
2021/10/14 04:04:58;;;;;;;1.70;1.70;;;6.10;99.90;;;;;;5041717;28;20312;-77
2021/10/14 04:07:25;;;;;;;1.60;1.50;;;6.10;99.90;;;;;;5039818;28;20297;-78
2021/10/14 04:09:52;;;;;;;1.95;1.85;;;6.10;99.90;;;;;;5030053;28;20219;-77
2021/10/14 04:12:21;;;;;;;1.65;1.58;;;6.10;99.90;;;;;;5041467;28;20234;-76
2021/10/14 04:14:48;;;;;;;1.90;1.80;;;6.20;99.90;;;;;;5057348;28;20207;-80
2021/10/14 04:17:15;;;;;;;1.55;1.55;;;6.20;99.90;;;;;;5045517;28;20211;-77
2021/10/14 04:19:42;;;;;;;1.77;1.67;;;6.20;99.90;;;;;;5039869;28;20215;-79
2021/10/14 04:22:09;;;;;;;1.90;1.80;;;6.20;99.90;;;;;;5043872;28;20755;-76
2021/10/14 04:24:38;;;;;;;1.83;1.73;;;6.10;99.90;;;;;;5043309;28;20596;-77
2021/10/14 04:27:05;;;;;;;1.63;1.52;;;6.10;99.90;;;;;;5041015;28;20277;-81
2021/10/14 04:29:34;;;;;;;2.00;1.90;;;6.10;99.90;;;;;;5040536;28;20272;-77
2021/10/14 04:32:04;;;;;;;1.92;1.83;;;6.10;99.90;;;;;;5043636;28;20238;-78
2021/10/14 04:34:31;;;;;;;1.70;1.60;;;6.10;99.90;;;;;;5045214;22;20288;-77
2021/10/14 04:36:58;;;;;;;2.10;2.00;;;6.00;99.90;;;;;;5013864;28;20693;-79
2021/10/14 04:39:25;;;;;;;2.00;1.90;;;6.00;99.90;;;;;;5016162;28;20266;-78
2021/10/14 04:41:52;;;;;;;1.92;1.83;;;6.00;99.90;;;;;;5019325;28;20220;-78
2021/10/14 04:44:19;;;;;;;1.90;1.83;;;6.00;99.90;;;;;;5009741;28;20231;-79
2021/10/14 04:46:47;;;;;;;1.90;1.80;;;6.00;99.90;;;;;;5003630;28;20270;-79
2021/10/14 04:49:15;;;;;;;1.95;1.85;;;6.00;99.90;;;;;;5003763;28;20781;-78
2021/10/14 04:51:42;;;;;;;1.60;1.50;;;6.00;99.90;;;;;;5004122;28;20667;-79
2021/10/14 04:54:09;;;;;;;3.53;1.40;;;6.00;99.90;;;;;;5006094;28;20229;-79
2021/10/14 04:56:36;;;;;;;2.45;2.35;;;6.00;99.90;;;;;;5004304;28;20223;-79
2021/10/14 04:59:03;;;;;;;2.20;2.10;;;6.00;99.90;;;;;;5001603;28;20232;-79
2021/10/14 05:01:30;;;;;;;1.80;1.70;;;6.00;99.90;;;;;;5001687;28;20227;-78
2021/10/14 05:03:58;;;;;;;1.92;1.83;;;5.90;99.90;;;;;;5000475;28;20244;-79
2021/10/14 05:06:25;;;;;;;2.13;2.03;;;5.90;99.90;;;;;;5001324;28;20359;-79
2021/10/14 05:08:52;;;;;;;1.98;1.88;;;5.90;99.90;;;;;;4976455;28;20353;-77
2021/10/14 05:11:19;;;;;;;2.30;2.10;;;5.90;99.90;;;;;;5004721;28;20275;-79
2021/10/14 05:13:46;;;;;;;1.73;1.58;;;5.90;99.90;;;;;;5011074;28;20308;-79
2021/10/14 05:16:13;;;;;;;1.90;1.80;;;5.90;99.90;;;;;;5004159;28;20280;-79
2021/10/14 05:18:40;;;;;;;1.85;1.75;;;5.90;99.90;;;;;;5003305;28;20274;-79
2021/10/14 05:21:09;;;;;;;1.63;1.63;;;5.90;99.90;;;;;;5003710;28;20260;-77
2021/10/14 05:23:36;;;;;;;1.75;1.65;;;5.90;99.90;;;;;;5003172;28;20315;-78
2021/10/14 05:26:03;;;;;;;2.15;2.05;;;5.90;99.90;;;;;;5000180;28;20225;-78
2021/10/14 05:28:30;;;;;;;1.88;1.77;;;5.90;99.90;;;;;;5003702;28;20224;-78
2021/10/14 05:30:57;;;;;;;2.08;1.98;;;5.90;99.90;;;;;;5006820;28;20609;-79
2021/10/14 05:33:24;;;;;;;2.35;2.25;;;5.90;99.90;;;;;;5006037;28;20224;-79
2021/10/14 05:35:52;;;;;;;2.08;1.98;;;5.80;99.90;;;;;;5008018;28;20228;-79
2021/10/14 05:38:20;;;;;;;2.08;1.98;;;5.80;99.90;;;;;;5005603;28;20303;-81
2021/10/14 05:40:48;;;;;;;2.20;2.10;;;5.80;99.90;;;;;;5002744;28;20244;-79
2021/10/14 05:43:15;;;;;;;2.30;2.20;;;5.80;99.90;;;;;;5006947;28;20779;-77
2021/10/14 05:45:42;;;;;;;2.10;2.00;;;5.80;99.90;;;;;;5006332;28;20231;-79
2021/10/14 05:48:10;;;;;;;2.03;1.92;;;5.80;99.90;;;;;;5004333;28;20851;-78
2021/10/14 05:50:37;;;;;;;2.30;2.20;;;5.80;99.90;;;;;;4999242;28;20220;-79
2021/10/14 05:53:04;;;;;;;2.45;2.35;;;5.80;99.90;;;;;;5002024;28;20294;-77
2021/10/14 05:55:32;;;;;;;2.60;2.40;;;5.80;99.90;;;;;;5006320;28;20286;-78
2021/10/14 05:57:59;;;;;;;2.10;2.00;;;5.80;99.90;;;;;;4998325;28;20228;-78
2021/10/14 06:00:26;;;;;;;2.95;2.20;;;5.80;99.90;;;;;;5006163;28;20227;-79
2021/10/14 06:02:53;;;;;;;2.25;2.15;;;5.80;99.90;;;;;;5004768;28;20745;-78
2021/10/14 06:05:20;;;;;;;1.75;1.73;;;5.70;99.90;;;;;;5004801;28;20299;-78
2021/10/14 06:07:49;;;;;;;2.05;1.95;;;5.70;99.90;;;;;;5003284;28;20768;-79
2021/10/14 06:10:16;;;;;;;1.80;1.70;;;5.60;99.90;;;;;;5005904;28;20230;-78
2021/10/14 06:12:45;;;;;;;2.00;1.90;;;5.70;99.90;;;;;;5002240;28;20281;-78
2021/10/14 06:15:12;;;;;;;2.15;2.05;;;5.70;99.90;;;;;;5002256;28;20220;-79
2021/10/14 06:17:39;;;;;;;2.42;2.33;;;5.70;99.90;;;;;;4999662;28;20270;-78
2021/10/14 06:20:07;;;;;;;2.42;2.33;;;5.80;99.90;;;;;;5001282;28;20717;-78
2021/10/14 06:22:34;;;;;;;2.60;2.40;;;5.80;99.90;;;;;;4999986;28;20220;-78
2021/10/14 06:25:01;;;;;;;2.72;2.38;;;5.80;99.90;;;;;;5001869;28;20228;-79
2021/10/14 06:27:28;;;;;;;2.47;2.38;;;5.80;99.90;;;;;;5004811;28;20232;-78
2021/10/14 06:29:58;;;;;;;2.50;2.00;;;5.80;99.90;;;;;;5000947;28;20247;-78
2021/10/14 06:32:26;;;;;;;2.15;2.05;;;5.80;99.90;;;;;;4999735;28;20239;-79
2021/10/14 06:34:53;;;;;;;2.00;1.90;;;5.80;99.90;;;;;;4970300;28;20238;-77
2021/10/14 06:37:20;;;;;;;2.20;2.10;;;5.80;99.90;;;;;;5007851;28;20228;-79
2021/10/14 06:39:47;;;;;;;2.20;2.10;;;5.80;99.90;;;;;;5009099;28;20325;-79
2021/10/14 06:42:14;;;;;;;2.28;2.17;;;5.90;99.90;;;;;;5003639;28;20219;-79
2021/10/14 06:44:41;;;;;;;2.40;2.20;;;5.80;99.90;;;;;;5002765;28;20228;-79
2021/10/14 06:47:10;;;;;;;2.45;2.35;;;5.90;99.90;;;;;;5001256;28;20231;-77
2021/10/14 06:49:37;;;;;;;1.95;1.85;;;5.80;99.90;;;;;;5001249;28;20224;-76
2021/10/14 06:52:04;;;;;;;2.45;2.25;;;6.60;99.90;;;;;;5000206;28;20227;-77
2021/10/14 06:54:31;;;;;;;2.38;2.28;;;7.60;99.90;;;;;;5000889;28;20228;-76
2021/10/14 06:56:58;;;;;;;2.58;2.33;;;8.60;99.90;;;;;;4999688;28;20817;-78
2021/10/14 06:59:25;;;;;;;2.20;2.00;;;9.30;99.90;;;;;;5004167;28;20220;-79
2021/10/14 07:01:52;;;;;;;2.53;2.33;;;9.80;99.90;;;;;;4961701;28;20695;-77
2021/10/14 07:04:21;;;;;;;2.03;1.92;;;10.40;99.90;;;;;;5000142;28;20224;-77
2021/10/14 07:06:48;;;;;;;2.05;1.88;;;10.90;99.90;;;;;;5006103;28;20285;-79
2021/10/14 07:09:15;;;;;;;2.08;1.98;;;11.20;99.90;;;;;;5004267;28;20220;-78
2021/10/14 07:11:44;;;;;;;3.03;1.95;;;11.40;99.90;;;;;;5001746;28;20273;-78
2021/10/14 07:14:11;;;;;;;3.08;2.08;;;11.80;99.90;;;;;;5003733;28;20224;-79
2021/10/14 07:16:38;;;;;;;1.88;1.77;;;12.30;99.90;;;;;;5004721;28;20470;-77
2021/10/14 07:19:05;;;;;;;2.10;1.95;;;12.80;99.90;;;;;;5000807;28;20224;-79
2021/10/14 07:21:34;;;;;;;2.03;1.83;;;13.30;99.90;;;;;;5005943;28;20707;-78
2021/10/14 07:24:01;;;;;;;1.80;1.70;;;13.90;99.90;;;;;;5000209;28;20395;-78
2021/10/14 07:26:28;;;;;;;1.95;1.85;;;14.30;99.90;;;;;;5004363;28;20270;-77
2021/10/14 07:28:56;;;;;;;1.60;1.50;;;14.50;99.90;;;;;;5006318;28;20232;-78
2021/10/14 07:31:24;;;;;;;1.63;1.52;;;14.70;99.90;;;;;;5003014;28;20587;-77
2021/10/14 07:33:51;;;;;;;1.75;1.65;;;15.10;99.90;;;;;;4998809;28;20284;-78
2021/10/14 07:36:18;;;;;;;2.95;2.03;;;15.20;99.90;;;;;;4997433;28;20239;-78
2021/10/14 07:38:49;;;;;;;3.28;2.50;;;15.20;99.90;;;;;;5004653;28;20412;-77
2021/10/14 07:41:16;;;;;;;2.33;2.13;;;15.00;99.90;;;;;;4989404;28;20224;-79
2021/10/14 07:43:43;;;;;;;3.03;2.03;;;15.00;99.90;;;;;;5000413;28;20278;-79
2021/10/14 07:46:10;;;;;;;2.75;1.88;;;15.00;99.90;;;;;;4999049;28;20768;-78
2021/10/14 07:48:37;;;;;;;1.75;1.65;;;15.00;99.90;;;;;;4997407;28;20289;-76
2021/10/14 07:51:04;;;;;;;2.13;1.92;;;15.20;99.90;;;;;;4998270;28;20227;-78
2021/10/14 07:53:31;;;;;;;2.75;1.80;;;15.30;99.90;;;;;;4998594;28;20371;-78
2021/10/14 07:56:00;;;;;;;1.83;1.60;;;15.50;99.90;;;;;;5000489;28;20613;-79
2021/10/14 07:58:27;;;;;;;2.17;2.08;;;15.60;99.90;;;;;;5001851;28;20220;-78
2021/10/14 08:00:54;;;;;;;4.55;1.90;;;15.60;99.90;;;;;;5001138;28;20220;-78
2021/10/14 08:03:21;;;;;;;2.85;2.33;;;15.70;99.90;;;;;;4999340;28;20231;-78
2021/10/14 08:05:48;;;;;;;2.45;2.25;;;15.80;99.90;;;;;;5000635;28;20250;-77
2021/10/14 08:08:15;;;;;;;2.45;2.20;;;15.80;99.90;;;;;;5001144;28;20216;-79
2021/10/14 08:10:42;;;;;;;2.40;2.20;;;15.70;99.90;;;;;;5000640;28;20274;-76
2021/10/14 08:13:13;;;;;;;3.30;2.30;;;15.70;99.90;;;;;;4996736;28;20224;-77
2021/10/14 08:15:41;;;;;;;1.95;1.85;;;15.70;99.90;;;;;;5001195;28;20228;-77
2021/10/14 08:18:09;;;;;;;2.00;1.90;;;15.60;99.90;;;;;;4999207;28;20234;-76
2021/10/14 08:20:36;;;;;;;2.97;1.60;;;15.70;99.90;;;;;;4999557;28;20235;-75
2021/10/14 08:23:03;;;;;;;3.50;1.80;;;16.00;99.90;;;;;;5000333;28;20274;-75
2021/10/14 08:25:30;;;;;;;2.92;1.60;;;15.80;99.90;;;;;;4997143;28;20269;-77
2021/10/14 08:27:57;;;;;;;1.70;1.60;;;15.90;99.90;;;;;;4995261;28;20754;-78
2021/10/14 08:30:26;;;;;;;2.72;1.77;;;15.80;99.90;;;;;;4998196;28;20223;-77
2021/10/14 08:32:54;;;;;;;1.60;1.50;;;15.70;99.90;;;;;;4998731;28;20649;-77
2021/10/14 08:35:22;;;;;;;3.55;1.65;;;15.70;99.30;;;;;;5000300;28;20730;-75
2021/10/14 08:37:49;;;;;;;2.85;1.63;;;16.00;99.30;;;;;;4995213;28;20330;-77
2021/10/14 08:40:17;;;;;;;1.88;1.73;;;16.20;99.00;;;;;;5000410;28;20586;-78
2021/10/14 08:42:44;;;;;;;1.90;1.67;;;16.20;98.50;;;;;;4998638;28;20220;-76
2021/10/14 08:45:13;;;;;;;1.60;1.50;;;16.40;98.50;;;;;;5000048;28;20389;-77
2021/10/14 08:47:41;;;;;;;2.30;1.63;;;16.70;99.40;;;;;;4992452;28;20220;-77
2021/10/14 08:50:11;;;;;;;1.85;1.73;;;16.90;98.20;;;;;;4995131;28;20243;-77
2021/10/14 08:52:38;;;;;;;2.03;1.70;;;16.90;97.60;;;;;;4995844;28;20246;-75
2021/10/14 08:55:06;;;;;;;1.70;1.60;;;16.80;97.40;;;;;;4994731;28;20228;-78
2021/10/14 08:57:33;;;;;;;1.75;1.65;;;16.70;98.50;;;;;;5001035;28;20224;-78
2021/10/14 09:00:00;;;;;;;1.88;1.77;;;16.80;98.70;;;;;;5002358;28;20224;-77
2021/10/14 09:02:29;;;;;;;1.83;1.63;;;16.90;98.80;;;;;;4998119;28;20229;-78
2021/10/14 09:05:01;;;;;;;2.22;1.55;;;17.00;98.60;;;;;;5001156;28;20236;-76
2021/10/14 09:07:30;;;;;;;1.70;1.60;;;16.90;97.20;;;;;;4997434;28;20234;-77
2021/10/14 09:10:00;;;;;;;1.55;1.45;;;16.80;97.70;;;;;;4998532;28;20241;-77
2021/10/14 09:12:33;;;;;;;1.67;1.58;;;17.20;98.40;;;;;;4996006;28;20711;-78
2021/10/14 09:15:03;;;;;;;2.25;1.73;;;17.30;97.20;;;;;;4999718;28;20244;-77
2021/10/14 09:17:51;;;;;;;1.75;1.65;;;17.10;97.40;;;;;;4998800;28;20307;-76
2021/10/14 09:20:36;;;;;;;1.75;1.65;;;16.80;96.10;;;;;;4998407;28;20732;-76
2021/10/14 09:23:10;;;;;;;1.67;1.58;;;17.10;98.40;;;;;;4995184;28;20215;-76
2021/10/14 09:25:39;;;;;;;1.85;1.70;;;17.10;98.10;;;;;;4997672;28;20224;-76
2021/10/14 09:28:12;;;;;;;1.45;1.33;;;17.40;98.30;;;;;;4998748;28;20754;-77
2021/10/14 09:30:47;;;;;;;1.63;1.42;;;17.30;96.40;;;;;;4999510;28;20251;-75
2021/10/14 09:33:36;;;;;;;1.70;1.60;;;17.30;96.90;;;;;;4998195;28;20698;-75
2021/10/14 09:36:17;;;;;;;3.63;1.50;;;17.00;95.30;;;;;;5000841;28;20311;-77
2021/10/14 09:38:45;;;;;;;1.70;1.60;;;16.80;95.90;;;;;;4997157;28;20224;-76
2021/10/14 09:41:14;;;;;;;2.20;1.77;;;16.60;96.30;;;;;;5000020;28;20228;-75
2021/10/14 09:43:42;;;;;;;1.70;1.60;;;17.00;97.70;;;;;;4995172;28;20240;-75
2021/10/14 09:46:10;;;;;;;1.58;1.30;;;17.30;96.60;;;;;;4996238;28;20334;-78
2021/10/14 09:48:40;;;;;;;2.17;1.98;;;17.40;96.70;;;;;;4993117;28;20223;-77
2021/10/14 09:51:08;;;;;;;1.95;1.60;;;17.60;96.60;;;;;;4995887;28;20256;-75
2021/10/14 09:53:37;;;;;;;2.15;1.77;;;17.50;95.60;;;;;;4999901;28;20235;-79
2021/10/14 09:56:05;;;;;;;3.97;1.83;;;17.10;95.00;;;;;;4995696;28;20229;-75
2021/10/14 09:58:32;;;;;;;1.70;1.60;;;16.90;95.00;;;;;;4998399;28;20286;-75
2021/10/14 10:00:59;;;;;;;1.55;1.45;;;16.70;95.50;;;;;;4996322;28;20776;-75
2021/10/14 10:03:27;;;;;;;2.10;1.90;;;16.80;96.00;;;;;;5006928;28;20283;-76
2021/10/14 10:05:55;;;;;;;1.70;1.60;;;17.30;96.10;;;;;;5002961;28;20220;-76
2021/10/14 10:08:32;;;;;;;1.83;1.63;;;17.40;95.70;;;;;;5002243;28;20248;-77
2021/10/14 10:11:04;;;;;;;2.25;1.70;;;17.30;95.00;;;;;;5001535;28;20223;-74
2021/10/14 10:13:34;;;;;;;2.28;1.33;;;17.20;94.40;;;;;;4999774;28;20220;-75
2021/10/14 10:16:14;;;;;;;2.58;1.45;;;17.20;95.50;;;;;;5002531;28;20232;-76
2021/10/14 10:18:42;;;;;;;1.63;1.50;;;17.20;93.80;;;;;;5000531;28;20255;-75
2021/10/14 10:21:37;;;;;;;1.33;1.30;;;16.90;94.40;;;;;;4999942;28;20224;-74
2021/10/14 10:24:05;;;;;;;2.97;2.00;;;17.00;94.70;;;;;;5002618;28;20232;-76
2021/10/14 10:26:53;;;;;;;8.07;3.10;;;17.30;94.60;;;;;;5007135;28;20959;-77
2021/10/14 10:29:58;;;;;;;2.45;1.63;;;17.80;96.20;;;;;;5005035;28;20223;-74
2021/10/14 10:32:25;;;;;;;2.38;1.80;;;18.40;92.10;;;;;;4936585;28;20666;-76
2021/10/14 10:35:08;;;;;;;4.07;1.90;;;18.20;93.40;;;;;;4939720;28;20288;-74
2021/10/14 10:37:44;;;;;;;2.00;1.50;;;18.50;94.40;;;;;;4980947;28;20311;-76
2021/10/14 10:40:24;;;;;;;2.83;1.60;;;18.70;93.00;;;;;;5004335;28;20355;-76
2021/10/14 10:42:59;;;;;;;2.40;1.40;;;18.50;92.40;;;;;;5045550;22;20608;-78
2021/10/14 10:45:28;;;;;;;2.50;1.67;;;18.30;91.50;;;;;;5035301;28;20226;-75
2021/10/14 10:48:00;;;;;;;2.40;2.00;;;18.40;92.80;;;;;;5042962;28;20424;-74
2021/10/14 10:50:48;;;;;;;1.60;1.50;;;18.50;92.80;;;;;;5034336;28;20234;-74
2021/10/14 10:53:17;;;;;;;1.60;1.45;;;18.40;90.70;;;;;;5035482;28;20310;-77
2021/10/14 10:55:50;;;;;;;1.60;1.50;;;18.30;91.00;;;;;;5036939;28;20459;-73
2021/10/14 10:58:42;;;;;;;3.28;1.40;;;18.40;92.20;;;;;;5034203;28;20249;-74
2021/10/14 11:01:09;;;;;;;2.28;1.20;;;18.50;89.60;;;;;;5032469;28;20317;-75
2021/10/14 11:03:36;;;;;;;1.70;1.30;;;18.50;92.30;;;;;;5037555;28;20280;-78
2021/10/14 11:06:09;;;;;;;2.03;1.42;;;18.30;90.90;;;;;;5036828;28;20382;-76
2021/10/14 11:08:37;;;;;;;1.40;1.30;;;18.30;91.00;;;;;;5039132;28;20230;-75
2021/10/14 11:11:06;;;;;;;2.08;1.20;;;18.40;91.20;;;;;;5041829;28;20219;-73
2021/10/14 11:13:36;;;;;;;1.25;1.15;;;18.40;90.10;;;;;;5031440;28;20226;-74
2021/10/14 11:16:06;;;;;;;1.38;1.27;;;18.30;91.30;;;;;;5033030;28;20857;-75
2021/10/14 11:18:36;;;;;;;1.40;1.17;;;18.30;90.10;;;;;;5036656;28;20219;-74
2021/10/14 11:21:05;;;;;;;1.55;1.45;;;18.20;91.00;;;;;;5039952;28;20237;-72
2021/10/14 11:23:36;;;;;;;1.95;1.30;;;18.30;90.30;;;;;;5037539;28;20551;-72
2021/10/14 11:26:07;;;;;;;1.65;1.38;;;18.10;90.80;;;;;;5042605;28;20602;-73
2021/10/14 11:28:56;;;;;;;1.48;1.38;;;18.10;90.40;;;;;;5030914;28;20227;-73
2021/10/14 11:31:25;;;;;;;1.10;1.05;;;18.30;89.50;;;;;;5034276;28;20830;-74
2021/10/14 11:33:55;;;;;;;1.40;1.30;;;18.40;91.90;;;;;;5031988;28;20259;-74
2021/10/14 11:36:22;;;;;;;1.30;1.20;;;18.30;90.20;;;;;;5026266;28;20227;-74
2021/10/14 11:39:00;;;;;;;1.15;1.10;;;18.40;90.90;;;;;;5032071;28;20219;-75
2021/10/14 11:41:28;;;;;;;1.77;1.20;;;18.60;91.10;;;;;;5025461;28;20491;-75
2021/10/14 11:43:58;;;;;;;1.73;1.27;;;18.90;90.80;;;;;;5031477;28;20782;-75
2021/10/14 11:46:26;;;;;;;3.28;1.58;;;19.00;90.40;;;;;;5034246;28;20270;-77
2021/10/14 11:48:57;;;;;;;1.65;1.35;;;18.80;88.10;;;;;;5035463;28;20516;-74
2021/10/14 11:51:24;;;;;;;1.05;1.05;;;18.70;90.10;;;;;;5034565;28;20310;-76
2021/10/14 11:54:04;;;;;;;1.40;1.30;;;18.80;90.80;;;;;;5036634;28;20304;-74
2021/10/14 11:56:32;;;;;;;1.45;1.35;;;18.80;90.30;;;;;;5035354;28;20215;-74
2021/10/14 11:59:04;;;;;;;1.08;1.08;;;19.10;91.20;;;;;;5027798;28;20725;-73
2021/10/14 12:01:32;;;;;;;1.30;1.20;;;18.90;90.10;;;;;;5033160;28;20292;-73
2021/10/14 12:04:01;;;;;;;1.42;1.33;;;18.70;90.50;;;;;;5028117;28;20687;-74
2021/10/14 12:06:28;;;;;;;1.20;1.10;;;18.60;90.70;;;;;;5032533;28;20288;-74
2021/10/14 12:08:55;;;;;;;2.90;1.30;;;18.90;91.00;;;;;;5031264;28;20281;-72
2021/10/14 12:11:23;;;;;;;1.15;1.00;;;18.80;90.30;;;;;;5030714;28;20223;-73
2021/10/14 12:14:02;;;;;;;2.35;1.20;;;18.60;90.90;;;;;;5030307;28;20791;-72
2021/10/14 12:16:31;;;;;;;2.15;1.10;;;18.80;90.70;;;;;;5030162;28;20681;-73
2021/10/14 12:19:12;;;;;;;1.17;1.13;;;19.10;90.80;;;;;;5035128;28;20243;-73
2021/10/14 12:21:41;;;;;;;1.67;1.33;;;19.40;89.80;;;;;;5035187;28;20233;-72
2021/10/14 12:24:12;;;;;;;1.20;1.10;;;19.30;89.70;;;;;;5031699;28;20302;-74
2021/10/14 12:26:42;;;;;;;1.05;1.05;;;19.40;91.20;;;;;;5028375;28;20238;-73
2021/10/14 12:29:23;;;;;;;1.60;1.50;;;19.60;90.50;;;;;;5032080;28;20649;-72
2021/10/14 12:31:50;;;;;;;1.30;1.20;;;19.80;88.80;;;;;;5029682;28;20634;-72
2021/10/14 12:34:17;;;;;;;0.90;0.90;;;19.90;90.40;;;;;;5035470;28;20233;-72
2021/10/14 12:36:45;;;;;;;2.00;1.30;;;19.70;90.20;;;;;;5028508;28;20284;-72
2021/10/14 12:39:20;;;;;;;1.08;1.08;;;19.40;90.50;;;;;;5037126;28;20258;-73
2021/10/14 12:41:51;;;;;;;1.20;1.10;;;19.30;90.60;;;;;;5031412;28;20797;-73
2021/10/14 12:44:19;;;;;;;1.20;1.10;;;18.90;88.90;;;;;;5036584;28;20231;-73
2021/10/14 12:46:57;;;;;;;1.20;1.10;;;18.60;90.40;;;;;;5029807;28;20246;-72
2021/10/14 12:49:31;;;;;;;1.20;1.17;;;18.50;90.20;;;;;;5035397;28;20218;-73
2021/10/14 12:51:58;;;;;;;1.20;1.20;;;18.70;90.50;;;;;;5033502;28;20678;-74
2021/10/14 12:54:27;;;;;;;2.97;1.23;;;18.90;90.60;;;;;;5031728;28;20317;-73
2021/10/14 12:56:59;;;;;;;1.35;1.20;;;19.00;90.30;;;;;;5031185;28;20721;-72
2021/10/14 12:59:28;;;;;;;1.20;1.20;;;18.90;90.70;;;;;;5032880;28;20222;-73
2021/10/14 13:02:00;;;;;;;1.40;1.30;;;19.00;90.90;;;;;;5031660;28;20609;-73